createdAt,value
2023-04-09T00:00:52.723Z,35.42
2023-04-09T00:03:22.772Z,35.12
2023-04-09T00:05:50.895Z,35.34
2023-04-09T00:08:18.761Z,35.20
2023-04-09T00:10:46.607Z,35.27
2023-04-09T00:13:17.008Z,35.46
2023-04-09T00:15:48.240Z,35.51
2023-04-09T00:18:16.666Z,35.37
2023-04-09T00:20:44.521Z,35.43
2023-04-09T00:23:13.038Z,35.66
2023-04-09T00:25:40.946Z,35.56
2023-04-09T00:28:09.028Z,35.41
2023-04-09T00:30:36.927Z,35.51
2023-04-09T00:33:04.863Z,35.75
2023-04-09T00:35:32.741Z,35.50
2023-04-09T00:38:00.823Z,35.64
2023-04-09T00:40:28.721Z,35.65
2023-04-09T00:42:57.235Z,35.84
2023-04-09T00:45:25.311Z,35.41
2023-04-09T00:47:53.221Z,35.41
2023-04-09T00:50:21.185Z,35.38
2023-04-09T00:52:49.225Z,36.06
2023-04-09T00:55:17.051Z,35.38
2023-04-09T00:57:44.910Z,36.13
2023-04-09T01:00:13.237Z,35.90
2023-04-09T01:02:44.375Z,35.39
2023-04-09T01:05:12.571Z,35.43
2023-04-09T01:07:40.896Z,36.02
2023-04-09T01:10:10.749Z,35.59
2023-04-09T01:12:38.769Z,35.38
2023-04-09T01:15:06.556Z,35.27
2023-04-09T01:17:34.389Z,35.40
2023-04-09T01:20:02.212Z,35.66
2023-04-09T01:22:30.083Z,35.70
2023-04-09T01:24:57.906Z,35.52
2023-04-09T01:27:25.667Z,35.46
2023-04-09T01:29:53.548Z,35.66
2023-04-09T01:32:21.376Z,35.10
2023-04-09T01:34:49.214Z,35.72
2023-04-09T01:37:17.225Z,35.44
2023-04-09T01:39:45.132Z,35.23
2023-04-09T01:42:12.934Z,35.93
2023-04-09T01:44:41.058Z,35.44
2023-04-09T01:47:09.066Z,35.29
2023-04-09T01:49:40.125Z,35.64
2023-04-09T01:52:07.969Z,35.43
2023-04-09T01:54:35.981Z,35.34
2023-04-09T01:57:03.812Z,35.61
2023-04-09T01:59:32.007Z,35.83
2023-04-09T02:01:59.869Z,35.62
2023-04-09T02:04:27.865Z,35.33
2023-04-09T02:06:56.136Z,35.80
2023-04-09T02:09:23.879Z,35.38
2023-04-09T02:11:51.736Z,35.64
2023-04-09T02:14:19.554Z,35.85
2023-04-09T02:16:47.369Z,35.58
2023-04-09T02:19:15.933Z,35.70
2023-04-09T02:21:44.369Z,36.05
2023-04-09T02:24:12.210Z,35.61
2023-04-09T02:26:40.117Z,35.29
2023-04-09T02:29:07.860Z,35.52
2023-04-09T02:31:35.886Z,35.83
2023-04-09T02:34:03.711Z,35.57
2023-04-09T02:36:31.612Z,35.53
2023-04-09T02:38:59.495Z,35.35
2023-04-09T02:41:27.386Z,35.88
2023-04-09T02:43:55.179Z,35.87
2023-04-09T02:46:23.038Z,36.02
2023-04-09T02:48:50.982Z,35.53
2023-04-09T02:51:19.172Z,35.36
2023-04-09T02:53:46.945Z,35.91
2023-04-09T02:56:14.732Z,35.72
2023-04-09T02:58:42.869Z,35.38
2023-04-09T03:01:11.129Z,35.94
2023-04-09T03:03:42.263Z,35.54
2023-04-09T03:06:10.191Z,35.58
2023-04-09T03:08:37.975Z,35.52
2023-04-09T03:11:05.875Z,36.05
2023-04-09T03:13:33.732Z,35.76
2023-04-09T03:16:01.561Z,35.84
2023-04-09T03:18:31.555Z,35.69
2023-04-09T03:20:59.422Z,35.47
2023-04-09T03:23:27.369Z,35.60
2023-04-09T03:25:55.193Z,35.49
2023-04-09T03:28:23.046Z,36.07
2023-04-09T03:30:51.096Z,35.84
2023-04-09T03:33:19.704Z,35.86
2023-04-09T03:35:47.543Z,36.70
2023-04-09T03:38:15.430Z,36.14
2023-04-09T03:40:43.323Z,36.64
2023-04-09T03:43:11.130Z,36.28
2023-04-09T03:45:38.925Z,35.96
2023-04-09T03:48:06.763Z,36.49
2023-04-09T03:50:34.579Z,36.36
2023-04-09T03:53:02.381Z,36.10
2023-04-09T03:55:30.240Z,35.73
2023-04-09T03:57:58.116Z,35.98
2023-04-09T04:00:26.088Z,35.75
2023-04-09T04:02:54.203Z,35.88
2023-04-09T04:05:23.337Z,36.18
2023-04-09T04:07:51.198Z,36.34
2023-04-09T04:10:19.289Z,36.12
2023-04-09T04:12:47.155Z,36.08
2023-04-09T04:15:14.989Z,35.41
2023-04-09T04:17:42.833Z,36.19
2023-04-09T04:20:10.748Z,35.67
2023-04-09T04:22:38.707Z,36.05
2023-04-09T04:25:06.501Z,35.71
2023-04-09T04:27:34.298Z,35.92
2023-04-09T04:30:02.262Z,35.96
2023-04-09T04:32:30.107Z,36.37
2023-04-09T04:34:57.916Z,35.85
2023-04-09T04:37:25.921Z,35.59
2023-04-09T04:39:53.731Z,35.38
2023-04-09T04:42:21.628Z,34.84
2023-04-09T04:44:49.405Z,34.95
2023-04-09T04:47:17.219Z,34.56
2023-04-09T04:49:45.005Z,34.76
2023-04-09T04:52:12.814Z,34.40
2023-04-09T04:54:40.699Z,34.30
2023-04-09T04:57:08.534Z,34.02
2023-04-09T04:59:36.273Z,34.61
2023-04-09T05:02:04.548Z,34.84
2023-04-09T05:04:32.457Z,34.82
2023-04-09T05:07:00.225Z,34.92
2023-04-09T05:09:28.262Z,34.78
2023-04-09T05:11:57.060Z,33.57
2023-04-09T05:14:25.338Z,32.37
2023-04-09T05:16:53.392Z,31.80
2023-04-09T05:19:21.269Z,31.59
2023-04-09T05:21:49.077Z,31.52
2023-04-09T05:24:17.154Z,31.29
2023-04-09T05:26:45.074Z,30.96
2023-04-09T05:29:12.813Z,30.29
2023-04-09T05:31:43.175Z,29.99
2023-04-09T05:34:11.278Z,30.12
2023-04-09T05:36:39.033Z,30.17
2023-04-09T05:39:06.829Z,29.94
2023-04-09T05:41:37.285Z,30.00
2023-04-09T05:44:05.155Z,29.93
2023-04-09T05:46:33.041Z,30.20
2023-04-09T05:49:00.845Z,30.31
2023-04-09T05:51:28.769Z,29.88
2023-04-09T05:53:56.566Z,30.64
2023-04-09T05:56:24.577Z,30.28
2023-04-09T05:58:52.391Z,30.09
2023-04-09T06:01:20.177Z,30.10
2023-04-09T06:03:48.126Z,30.40
2023-04-09T06:06:16.170Z,30.40
2023-04-09T06:08:45.016Z,31.17
2023-04-09T06:11:12.806Z,31.10
2023-04-09T06:13:40.578Z,30.90
2023-04-09T06:16:08.662Z,31.86
2023-04-09T06:18:36.475Z,31.27
2023-04-09T06:21:04.440Z,31.46
2023-04-09T06:23:32.513Z,31.65
2023-04-09T06:26:00.417Z,31.74
2023-04-09T06:28:28.403Z,31.87
2023-04-09T06:30:56.290Z,31.92
2023-04-09T06:33:24.114Z,32.07
2023-04-09T06:35:51.947Z,31.61
2023-04-09T06:38:19.764Z,31.93
2023-04-09T06:40:47.824Z,31.72
2023-04-09T06:43:15.650Z,31.50
2023-04-09T06:45:43.470Z,31.82
2023-04-09T06:48:11.273Z,31.66
2023-04-09T06:50:39.208Z,31.85
2023-04-09T06:53:06.973Z,31.70
2023-04-09T06:55:34.842Z,31.83
2023-04-09T06:58:03.429Z,31.89
2023-04-09T07:00:31.376Z,31.68
2023-04-09T07:02:59.199Z,32.38
2023-04-09T07:05:27.275Z,32.26
2023-04-09T07:07:55.058Z,32.33
2023-04-09T07:10:22.859Z,32.86
2023-04-09T07:12:50.673Z,32.49
2023-04-09T07:15:18.633Z,32.71
2023-04-09T07:17:46.504Z,32.22
2023-04-09T07:20:14.694Z,32.20
2023-04-09T07:22:42.802Z,32.21
2023-04-09T07:25:10.935Z,32.20
2023-04-09T07:27:38.696Z,32.46
2023-04-09T07:30:06.483Z,32.61
2023-04-09T07:32:34.429Z,32.48
2023-04-09T07:35:02.505Z,31.86
2023-04-09T07:37:30.633Z,32.21
2023-04-09T07:39:58.430Z,32.25
2023-04-09T07:42:27.350Z,32.00
2023-04-09T07:44:55.268Z,31.92
2023-04-09T07:47:23.271Z,32.26
2023-04-09T07:49:51.637Z,32.26
2023-04-09T07:52:20.216Z,32.04
2023-04-09T07:54:48.038Z,31.87
2023-04-09T07:57:15.932Z,32.26
2023-04-09T07:59:43.705Z,31.91
2023-04-09T08:02:14.357Z,31.94
2023-04-09T08:04:43.062Z,32.15
2023-04-09T08:07:11.545Z,32.19
2023-04-09T08:09:39.433Z,32.44
2023-04-09T08:12:07.213Z,32.72
2023-04-09T08:14:35.059Z,32.73
2023-04-09T08:17:03.377Z,32.86
2023-04-09T08:19:31.361Z,32.59
2023-04-09T08:21:59.217Z,32.95
2023-04-09T08:24:27.049Z,33.07
2023-04-09T08:26:54.875Z,32.59
2023-04-09T08:29:22.648Z,32.63
2023-04-09T08:31:50.744Z,32.32
2023-04-09T08:34:21.162Z,32.44
2023-04-09T08:36:49.919Z,32.33
2023-04-09T08:39:18.981Z,32.85
2023-04-09T08:41:47.627Z,32.85
2023-04-09T08:44:15.594Z,32.48
2023-04-09T08:46:43.417Z,32.18
2023-04-09T08:49:11.523Z,33.05
2023-04-09T08:51:40.405Z,32.48
2023-04-09T08:54:08.353Z,32.53
2023-04-09T08:56:36.431Z,33.07
2023-04-09T08:59:04.360Z,32.79
2023-04-09T09:01:32.560Z,32.98
2023-04-09T09:04:00.736Z,32.88
2023-04-09T09:06:30.134Z,33.19
2023-04-09T09:08:57.961Z,33.11
2023-04-09T09:11:26.045Z,33.32
2023-04-09T09:13:53.830Z,33.29
2023-04-09T09:16:21.755Z,33.15
2023-04-09T09:18:49.960Z,33.26
2023-04-09T09:21:19.494Z,32.57
2023-04-09T09:23:48.517Z,33.04
2023-04-09T09:26:16.577Z,33.20
2023-04-09T09:28:44.413Z,33.38
2023-04-09T09:31:12.625Z,33.17
2023-04-09T09:33:40.630Z,33.12
2023-04-09T09:36:09.596Z,33.40
2023-04-09T09:38:37.429Z,33.04
2023-04-09T09:41:05.461Z,33.06
2023-04-09T09:43:33.222Z,33.31
2023-04-09T09:46:01.052Z,33.12
2023-04-09T09:48:28.873Z,32.83
2023-04-09T09:50:56.891Z,33.10
2023-04-09T09:53:25.219Z,32.97
2023-04-09T09:55:53.122Z,33.14
2023-04-09T09:58:20.912Z,32.92
2023-04-09T10:00:49.006Z,33.16
2023-04-09T10:03:17.165Z,33.20
2023-04-09T10:05:45.974Z,33.26
2023-04-09T10:08:13.882Z,33.21
2023-04-09T10:10:42.425Z,33.27
2023-04-09T10:13:10.270Z,32.78
2023-04-09T10:15:38.439Z,32.89
2023-04-09T10:18:06.413Z,32.94
2023-04-09T10:20:34.773Z,32.92
2023-04-09T10:23:02.534Z,32.66
2023-04-09T10:25:30.371Z,32.62
2023-04-09T10:27:58.156Z,33.04
2023-04-09T10:30:25.969Z,33.02
2023-04-09T10:32:54.172Z,32.98
2023-04-09T10:35:22.044Z,32.78
2023-04-09T10:37:50.688Z,33.06
2023-04-09T10:40:18.618Z,33.39
2023-04-09T10:42:47.880Z,33.22
2023-04-09T10:45:16.926Z,33.13
2023-04-09T10:47:46.340Z,33.20
2023-04-09T10:50:14.542Z,33.34
2023-04-09T10:52:42.573Z,33.14
2023-04-09T10:55:10.369Z,32.85
2023-04-09T10:57:38.131Z,32.73
2023-04-09T11:00:05.946Z,32.10
2023-04-09T11:02:33.905Z,33.00
2023-04-09T11:05:02.058Z,33.24
2023-04-09T11:07:30.232Z,33.02
2023-04-09T11:09:58.054Z,32.82
2023-04-09T11:12:26.087Z,32.44
2023-04-09T11:14:53.992Z,32.16
2023-04-09T11:17:21.901Z,32.59
2023-04-09T11:19:49.862Z,32.83
2023-04-09T11:22:17.807Z,32.64
2023-04-09T11:24:46.619Z,32.67
2023-04-09T11:27:19.600Z,32.87
2023-04-09T11:29:47.464Z,31.97
2023-04-09T11:32:15.723Z,32.40
2023-04-09T11:34:43.577Z,32.19
2023-04-09T11:37:12.248Z,32.25
2023-04-09T11:39:42.979Z,32.69
2023-04-09T11:42:10.909Z,32.62
2023-04-09T11:44:38.772Z,33.02
2023-04-09T11:47:07.489Z,32.82
2023-04-09T11:49:35.349Z,33.09
2023-04-09T11:52:04.138Z,33.00
2023-04-09T11:54:31.908Z,32.87
2023-04-09T11:56:59.707Z,33.04
2023-04-09T11:59:27.512Z,33.03
2023-04-09T12:01:55.510Z,32.72
2023-04-09T12:04:23.569Z,32.43
2023-04-09T12:06:52.002Z,32.70
2023-04-09T12:09:19.796Z,32.77
2023-04-09T12:11:47.581Z,32.94
2023-04-09T12:14:16.276Z,32.90
2023-04-09T12:16:44.886Z,32.79
2023-04-09T12:19:12.806Z,32.52
2023-04-09T12:21:40.601Z,32.40
2023-04-09T12:24:08.369Z,32.14
2023-04-09T12:26:36.178Z,31.69
2023-04-09T12:29:03.992Z,31.48
2023-04-09T12:31:31.803Z,30.71
2023-04-09T12:33:59.647Z,30.60
2023-04-09T12:36:27.668Z,30.28
2023-04-09T12:38:55.833Z,30.36
2023-04-09T12:41:23.635Z,30.49
2023-04-09T12:43:51.658Z,30.66
2023-04-09T12:46:19.612Z,30.20
2023-04-09T12:48:47.493Z,29.73
2023-04-09T12:51:15.332Z,29.67
2023-04-09T12:53:44.661Z,29.20
2023-04-09T12:56:12.471Z,29.36
2023-04-09T12:58:40.463Z,29.53
2023-04-09T13:01:08.295Z,28.78
2023-04-09T13:03:36.672Z,29.41
2023-04-09T13:06:04.605Z,29.32
2023-04-09T13:08:32.404Z,29.69
2023-04-09T13:11:00.838Z,29.45
2023-04-09T13:13:28.709Z,29.14
2023-04-09T13:15:58.980Z,29.09
2023-04-09T13:18:26.753Z,28.81
2023-04-09T13:20:54.557Z,29.31
2023-04-09T13:23:22.345Z,29.19
2023-04-09T13:25:50.129Z,29.03
2023-04-09T13:28:17.995Z,29.47
2023-04-09T13:30:45.778Z,29.28
2023-04-09T13:33:13.573Z,29.21
2023-04-09T13:35:41.518Z,29.29
2023-04-09T13:38:12.598Z,30.31
2023-04-09T13:40:40.730Z,29.54
2023-04-09T13:43:08.493Z,30.31
2023-04-09T13:45:39.461Z,30.38
2023-04-09T13:48:07.385Z,30.71
2023-04-09T13:50:35.353Z,30.00
2023-04-09T13:53:05.340Z,30.04
2023-04-09T13:55:33.209Z,30.62
2023-04-09T13:58:00.995Z,30.70
2023-04-09T14:00:29.079Z,30.85
2023-04-09T14:02:57.023Z,30.55
2023-04-09T14:05:25.303Z,30.59
2023-04-09T14:07:53.098Z,30.41
2023-04-09T14:10:20.881Z,30.30
2023-04-09T14:12:48.807Z,30.75
2023-04-09T14:15:16.890Z,31.16
2023-04-09T14:17:44.707Z,31.20
2023-04-09T14:20:12.650Z,30.97
2023-04-09T14:22:41.512Z,30.57
2023-04-09T14:25:09.324Z,29.89
2023-04-09T14:27:40.116Z,30.19
2023-04-09T14:30:07.905Z,29.79
2023-04-09T14:32:36.387Z,30.26
2023-04-09T14:35:04.278Z,29.99
2023-04-09T14:37:32.297Z,29.89
2023-04-09T14:40:00.068Z,28.84
2023-04-09T14:42:28.106Z,29.60
2023-04-09T14:44:56.124Z,28.68
2023-04-09T14:47:23.997Z,29.06
2023-04-09T14:49:55.041Z,29.21
2023-04-09T14:52:22.966Z,29.13
2023-04-09T14:54:52.966Z,29.04
2023-04-09T14:57:20.853Z,29.27
2023-04-09T14:59:48.684Z,29.16
2023-04-09T15:02:16.686Z,29.20
2023-04-09T15:04:44.718Z,29.56
2023-04-09T15:07:13.011Z,29.46
2023-04-09T15:09:40.866Z,29.07
2023-04-09T15:12:09.638Z,29.10
2023-04-09T15:14:37.435Z,29.09
2023-04-09T15:17:05.422Z,28.54
2023-04-09T15:19:33.445Z,29.23
2023-04-09T15:22:01.254Z,28.79
2023-04-09T15:24:29.024Z,29.23
2023-04-09T15:26:57.011Z,29.59
2023-04-09T15:29:24.789Z,29.73
2023-04-09T15:31:52.967Z,29.46
2023-04-09T15:34:20.948Z,29.92
2023-04-09T15:36:48.952Z,29.62
2023-04-09T15:39:17.138Z,29.57
2023-04-09T15:41:45.019Z,29.87
2023-04-09T15:44:12.824Z,29.64
2023-04-09T15:46:40.902Z,30.17
2023-04-09T15:49:11.722Z,30.10
2023-04-09T15:51:39.549Z,30.17
2023-04-09T15:54:07.360Z,29.75
2023-04-09T15:56:39.917Z,30.29
2023-04-09T15:59:08.351Z,30.43
2023-04-09T16:01:36.716Z,29.93
2023-04-09T16:04:09.506Z,30.40
2023-04-09T16:06:37.346Z,30.69
2023-04-09T16:09:05.288Z,30.01
2023-04-09T16:11:37.601Z,30.14
2023-04-09T16:14:05.482Z,30.31
2023-04-09T16:16:33.274Z,30.42
2023-04-09T16:19:01.135Z,30.83
2023-04-09T16:21:29.213Z,30.25
2023-04-09T16:23:57.534Z,30.38
2023-04-09T16:26:28.596Z,29.24
2023-04-09T16:28:59.928Z,29.59
2023-04-09T16:31:30.381Z,29.00
2023-04-09T16:33:58.738Z,29.02
2023-04-09T16:36:27.127Z,28.91
2023-04-09T16:38:55.201Z,28.40
2023-04-09T16:41:23.004Z,28.47
2023-04-09T16:43:51.493Z,28.08
2023-04-09T16:46:19.400Z,28.49
2023-04-09T16:48:47.561Z,27.48
2023-04-09T16:51:15.584Z,28.34
2023-04-09T16:53:43.525Z,28.09
2023-04-09T16:56:11.527Z,28.44
2023-04-09T16:58:39.497Z,28.93
2023-04-09T17:01:07.619Z,29.23
2023-04-09T17:03:35.744Z,28.18
2023-04-09T17:06:05.183Z,28.51
2023-04-09T17:08:33.161Z,28.31
2023-04-09T17:11:03.213Z,28.46
2023-04-09T17:13:31.716Z,29.03
2023-04-09T17:15:59.651Z,28.86
2023-04-09T17:18:27.884Z,28.75
2023-04-09T17:20:56.288Z,29.11
2023-04-09T17:23:26.427Z,29.22
2023-04-09T17:28:25.185Z,29.00
2023-04-09T17:30:53.265Z,29.35
2023-04-09T17:33:24.118Z,29.37
2023-04-09T17:35:53.099Z,29.44
2023-04-09T17:38:21.721Z,29.52
2023-04-09T17:40:49.760Z,29.81
2023-04-09T17:43:17.873Z,30.05
2023-04-09T17:45:46.274Z,29.76
2023-04-09T17:48:18.509Z,30.54
2023-04-09T17:50:46.854Z,29.72
2023-04-09T17:53:14.926Z,30.19
2023-04-09T17:55:42.914Z,30.16
2023-04-09T17:58:10.966Z,29.66
2023-04-09T18:00:39.025Z,30.34
2023-04-09T18:03:07.198Z,30.53
2023-04-09T18:05:35.375Z,30.47
2023-04-09T18:08:03.363Z,30.58
2023-04-09T18:10:32.816Z,30.85
2023-04-09T18:13:00.813Z,30.73
2023-04-09T18:15:28.706Z,31.13
2023-04-09T18:17:56.570Z,30.77
2023-04-09T18:20:24.665Z,30.97
2023-04-09T18:22:54.831Z,31.13
2023-04-09T18:25:23.569Z,30.67
2023-04-09T18:27:51.456Z,30.43
2023-04-09T18:30:19.309Z,30.63
2023-04-09T18:32:48.356Z,30.04
2023-04-09T18:35:17.464Z,29.87
2023-04-09T18:37:45.420Z,29.55
2023-04-09T18:40:15.692Z,29.04
2023-04-09T18:42:43.580Z,29.19
2023-04-09T18:45:11.858Z,29.36
2023-04-09T18:47:40.479Z,29.36
2023-04-09T18:50:08.787Z,29.27
2023-04-09T18:52:38.595Z,29.44
2023-04-09T18:55:06.682Z,29.26
2023-04-09T18:57:34.660Z,29.37
2023-04-09T19:00:03.943Z,29.39
2023-04-09T19:02:32.190Z,28.96
2023-04-09T19:05:00.292Z,29.75
2023-04-09T19:07:28.265Z,29.58
2023-04-09T19:09:56.507Z,29.33
2023-04-09T19:12:25.054Z,29.75
2023-04-09T19:14:53.768Z,29.79
2023-04-09T19:17:21.707Z,29.84
2023-04-09T19:19:51.705Z,29.97
2023-04-09T19:22:19.733Z,30.13
2023-04-09T19:24:47.650Z,30.06
2023-04-09T19:27:15.572Z,30.11
2023-04-09T19:29:44.160Z,30.58
2023-04-09T19:32:14.989Z,30.52
2023-04-09T19:34:42.790Z,30.31
2023-04-09T19:37:12.545Z,30.58
2023-04-09T19:39:41.691Z,31.01
2023-04-09T19:42:09.590Z,31.06
2023-04-09T19:44:37.721Z,31.12
2023-04-09T19:47:07.768Z,31.16
2023-04-09T19:49:35.720Z,30.50
2023-04-09T19:52:09.222Z,31.27
2023-04-09T19:54:39.748Z,31.00
2023-04-09T19:57:15.264Z,30.88
2023-04-09T19:59:43.056Z,31.12
2023-04-09T20:02:10.913Z,31.39
2023-04-09T20:04:40.474Z,31.05
2023-04-09T20:07:08.266Z,31.54
2023-04-09T20:09:41.434Z,31.32
2023-04-09T20:12:09.242Z,31.75
2023-04-09T20:14:38.299Z,31.55
2023-04-09T20:17:06.172Z,31.84
2023-04-09T20:19:34.130Z,31.88
2023-04-09T20:22:02.050Z,31.88
2023-04-09T20:24:32.332Z,32.14
2023-04-09T20:27:00.112Z,32.25
2023-04-09T20:29:27.955Z,32.16
2023-04-09T20:31:55.818Z,32.11
2023-04-09T20:34:27.070Z,31.90
2023-04-09T20:36:55.536Z,32.32
2023-04-09T20:39:26.924Z,32.21
2023-04-09T20:41:55.160Z,32.20
2023-04-09T20:44:22.990Z,32.49
2023-04-09T20:46:50.906Z,32.39
2023-04-09T20:49:18.701Z,32.53
2023-04-09T20:51:46.528Z,32.76
2023-04-09T20:54:14.326Z,32.72
2023-04-09T20:56:42.182Z,32.50
2023-04-09T20:59:10.001Z,32.56
2023-04-09T21:01:37.994Z,32.92
2023-04-09T21:04:08.613Z,32.71
2023-04-09T21:06:36.605Z,32.33
2023-04-09T21:09:04.528Z,32.63
2023-04-09T21:11:32.452Z,33.01
2023-04-09T21:14:03.050Z,33.07
2023-04-09T21:16:31.227Z,33.04
2023-04-09T21:19:07.162Z,32.70
2023-04-09T21:21:35.095Z,33.28
2023-04-09T21:24:03.109Z,33.18
2023-04-09T21:26:38.670Z,33.25
2023-04-09T21:29:17.612Z,33.06
2023-04-09T21:31:45.702Z,33.02
2023-04-09T21:34:13.538Z,33.05
2023-04-09T21:36:41.393Z,33.09
2023-04-09T21:39:09.283Z,33.31
2023-04-09T21:41:37.052Z,33.19
2023-04-09T21:44:08.574Z,33.11
2023-04-09T21:46:37.146Z,33.02
2023-04-09T21:49:05.094Z,33.21
2023-04-09T21:51:33.170Z,33.17
2023-04-09T21:54:01.035Z,33.07
2023-04-09T21:56:28.817Z,33.61
2023-04-09T21:58:56.902Z,33.33
2023-04-09T22:01:29.474Z,33.72
2023-04-09T22:03:57.553Z,33.46
2023-04-09T22:06:27.076Z,33.29
2023-04-09T22:08:56.866Z,33.39
2023-04-09T22:11:25.052Z,33.35
2023-04-09T22:13:53.214Z,33.62
2023-04-09T22:16:21.014Z,33.35
2023-04-09T22:18:49.076Z,33.57
2023-04-09T22:21:16.879Z,33.51
2023-04-09T22:23:44.725Z,33.44
2023-04-09T22:26:12.645Z,33.37
2023-04-09T22:28:40.438Z,33.74
2023-04-09T22:31:08.256Z,33.75
2023-04-09T22:33:36.142Z,33.64
2023-04-09T22:36:03.943Z,33.52
2023-04-09T22:38:31.862Z,33.45
2023-04-09T22:40:59.788Z,33.57
2023-04-09T22:43:27.584Z,33.57
2023-04-09T22:45:56.028Z,33.63
2023-04-09T22:48:24.119Z,33.57
2023-04-09T22:50:54.294Z,33.97
2023-04-09T22:53:24.791Z,33.51
2023-04-09T22:55:52.603Z,33.88
2023-04-09T22:58:20.546Z,34.06
2023-04-09T23:00:48.348Z,33.69
2023-04-09T23:03:16.913Z,33.86
2023-04-09T23:05:44.799Z,33.85
2023-04-09T23:08:12.640Z,34.11
2023-04-09T23:10:40.485Z,33.97
2023-04-09T23:13:10.252Z,34.02
2023-04-09T23:15:38.071Z,33.99
2023-04-09T23:18:05.887Z,34.10
2023-04-09T23:20:33.765Z,33.86
2023-04-09T23:23:01.683Z,34.07
2023-04-09T23:25:29.462Z,34.01
2023-04-09T23:27:57.354Z,33.93
2023-04-09T23:30:25.173Z,34.27
2023-04-09T23:32:55.607Z,34.11
2023-04-09T23:35:25.427Z,34.35
2023-04-09T23:37:53.341Z,33.76
2023-04-09T23:40:21.491Z,34.06
2023-04-09T23:42:50.285Z,34.26
2023-04-09T23:45:18.106Z,34.22
2023-04-09T23:47:46.180Z,33.91
2023-04-09T23:50:14.113Z,34.14
2023-04-09T23:52:41.975Z,34.18
2023-04-09T23:55:10.791Z,34.16
2023-04-09T23:57:39.788Z,34.11
